Time;durP1;ratioP1;P1;durP2;ratioP2;P2;SDS_P1;SDS_P2;PMS_P1;PMS_P2;Temp;Humidity;BMP_temperature;BMP_pressure;BME280_temperature;BME280_humidity;BME280_pressure;Samples;Min_cycle;Max_cycle;Signal;HPM_P1;HPM_P2
2022/05/29 03:42:58;;;;;;;4.00;2.30;;;;;;;9.20;74.14;99408.84;213953;1276;140843;-64
2022/05/29 03:48:04;;;;;;;2.30;2.10;;;;;;;9.59;73.70;99404.74;213466;1274;141944;-64
2022/05/29 03:53:08;;;;;;;10.90;4.90;;;;;;;9.61;73.53;99399.04;215653;1276;140041;-64
2022/05/29 03:58:12;;;;;;;10.00;3.90;;;;;;;9.85;73.58;99395.77;215839;1275;140139;-64
2022/05/29 04:03:17;;;;;;;7.50;3.30;;;;;;;10.17;73.38;99393.52;215585;1277;140023;-65
2022/05/29 04:13:45;;;;;;;8.30;3.50;;;;;;;10.57;72.59;99404.18;215132;1275;141629;-65
2022/05/29 04:18:50;;;;;;;3.50;2.60;;;;;;;11.05;71.68;99403.38;215832;1276;140025;-63
2022/05/29 04:23:55;;;;;;;6.90;3.00;;;;;;;12.33;70.30;99401.62;214704;1277;141468;-63
2022/05/29 04:29:02;;;;;;;4.60;3.00;;;;;;;13.17;69.65;99407.10;214444;1277;139933;-65
2022/05/29 04:34:06;;;;;;;4.40;2.50;;;;;;;15.00;66.95;99402.73;213811;1277;139735;-64
2022/05/29 04:39:11;;;;;;;5.70;2.70;;;;;;;17.80;64.02;99400.94;214245;1277;140189;-63
2022/05/29 04:44:16;;;;;;;4.50;3.00;;;;;;;17.38;63.42;99401.93;214422;1276;140316;-65
2022/05/29 04:49:20;;;;;;;8.70;2.70;;;;;;;18.23;61.05;99406.77;213691;1277;140890;-63
2022/05/29 04:54:24;;;;;;;5.60;3.00;;;;;;;17.80;60.87;99414.48;213359;1277;141293;-64
2022/05/29 04:59:29;;;;;;;7.10;2.90;;;;;;;17.49;60.70;99417.98;213335;1276;793327;-63
2022/05/29 05:04:34;;;;;;;5.20;3.00;;;;;;;17.07;60.35;99420.48;214367;1276;141529;-64
2022/05/29 05:09:39;;;;;;;3.00;2.70;;;;;;;16.13;60.57;99421.60;214178;1277;140062;-63
2022/05/29 05:14:44;;;;;;;3.70;2.20;;;;;;;15.83;60.48;99422.65;214531;1277;139526;-66
2022/05/29 05:19:49;;;;;;;5.30;2.40;;;;;;;17.84;59.02;99416.69;214327;1277;140689;-64
2022/05/29 05:24:53;;;;;;;5.10;2.80;;;;;;;18.14;57.49;99424.21;215041;1276;139284;-64
2022/05/29 05:29:58;;;;;;;5.90;2.70;;;;;;;20.95;55.21;99425.10;214033;1277;140289;-63
2022/05/29 05:35:05;;;;;;;5.20;2.80;;;;;;;24.58;51.95;99426.17;215485;1277;139664;-64
2022/05/29 05:40:14;;;;;;;5.20;2.50;;;;;;;26.41;48.94;99429.92;215145;1277;140310;-64
2022/05/29 05:45:20;;;;;;;4.40;2.40;;;;;;;27.16;46.66;99441.75;214710;1277;139905;-63
2022/05/29 05:50:24;;;;;;;3.30;1.90;;;;;;;28.20;44.43;99445.18;215494;1276;139648;-65
2022/05/29 05:55:28;;;;;;;7.80;2.30;;;;;;;29.00;42.36;99444.00;215753;1276;139301;-64
2022/05/29 06:00:32;;;;;;;3.90;2.10;;;;;;;30.61;40.10;99445.37;215786;1277;140422;-63
2022/05/29 06:05:36;;;;;;;6.50;1.10;;;;;;;31.58;38.61;99440.36;215690;1276;139761;-65
2022/05/29 06:10:40;;;;;;;3.40;1.90;;;;;;;32.50;36.94;99447.69;214328;1277;140083;-65
2022/05/29 06:15:46;;;;;;;;;;;;;;;33.10;35.52;99443.99;213735;1276;139686;-64
2022/05/29 06:21:00;;;;;;;9.60;2.00;;;;;;;33.67;34.65;99449.61;214426;1276;125590;-65
2022/05/29 06:26:12;;;;;;;2.30;1.10;;;;;;;34.00;33.26;99443.89;213871;1276;151187;-66
2022/05/29 06:31:18;;;;;;;3.80;1.70;;;;;;;33.35;32.29;99443.06;213401;1276;140325;-64
2022/05/29 06:36:25;;;;;;;3.90;1.40;;;;;;;33.37;32.18;99441.32;214298;1276;139409;-64
2022/05/29 06:41:30;;;;;;;2.50;1.10;;;;;;;32.17;31.61;99440.59;213105;1276;140090;-63
2022/05/29 06:46:35;;;;;;;1.80;1.50;;;;;;;31.29;31.56;99443.16;214031;1277;139447;-64
2022/05/29 06:51:39;;;;;;;5.00;2.50;;;;;;;30.02;32.10;99441.86;214158;1277;140152;-64
2022/05/29 06:56:44;;;;;;;3.80;1.10;;;;;;;28.29;32.52;99447.52;214272;1276;141750;-63
2022/05/29 07:07:15;;;;;;;2.70;1.30;;;;;;;26.70;34.47;99447.90;214469;1276;126628;-63
2022/05/29 07:12:31;;;;;;;3.90;1.70;;;;;;;26.03;35.69;99451.20;214170;1277;139864;-63
2022/05/29 07:17:36;;;;;;;2.10;1.70;;;;;;;25.05;35.93;99459.81;214067;1276;140318;-63
2022/05/29 07:22:43;;;;;;;5.40;1.60;;;;;;;23.52;36.52;99465.24;214851;1277;141530;-62
2022/05/29 07:27:50;;;;;;;4.70;2.00;;;;;;;22.27;37.99;99464.27;215749;1277;141158;-64
2022/05/29 07:32:55;;;;;;;5.40;2.50;;;;;;;21.51;39.28;99466.75;215377;1277;139575;-64
2022/05/29 07:38:03;;;;;;;6.90;2.80;;;;;;;20.80;40.26;99465.52;215854;1276;140223;-64
2022/05/29 07:43:24;;;;;;;5.00;1.80;;;;;;;20.06;40.73;99474.80;213547;1277;142930;-64
2022/05/29 07:48:30;;;;;;;2.30;1.30;;;;;;;19.96;42.62;99474.31;214745;1277;140478;-65
2022/05/29 07:53:34;;;;;;;3.70;1.60;;;;;;;21.06;43.95;99475.36;215632;1277;140281;-65
2022/05/29 07:58:42;;;;;;;4.60;2.30;;;;;;;21.52;43.23;99476.72;214810;1277;140188;-65
2022/05/29 08:03:46;;;;;;;5.80;2.30;;;;;;;21.58;42.16;99473.48;215693;1276;140647;-65
2022/05/29 08:08:50;;;;;;;5.50;2.00;;;;;;;20.97;42.16;99473.83;215065;1276;140760;-64
2022/05/29 08:13:54;;;;;;;5.70;2.10;;;;;;;21.67;43.15;99471.73;215616;1276;235199;-64
2022/05/29 08:18:58;;;;;;;2.40;1.50;;;;;;;22.34;42.63;99472.66;215263;1277;141065;-64
2022/05/29 08:35:06;;;;;;;4.60;1.80;;;;;;;21.38;40.83;99473.77;214166;1276;139370;-63
2022/05/29 08:40:12;;;;;;;10.40;2.20;;;;;;;20.60;41.68;99470.36;214217;1277;140093;-64
2022/05/29 08:45:18;;;;;;;;;;;;;;;20.32;42.49;99474.52;214425;1276;139724;-63
2022/05/29 08:50:28;;;;;;;7.70;1.90;;;;;;;20.39;43.28;99473.44;213896;1277;125882;-64
2022/05/29 08:55:35;;;;;;;2.70;2.10;;;;;;;20.91;43.58;99466.63;213955;1277;140137;-64
2022/05/29 09:01:18;;;;;;;4.10;2.00;;;;;;;20.71;42.58;99470.75;213810;1276;150955;-64
2022/05/29 09:06:49;;;;;;;3.20;1.60;;;;;;;19.96;42.04;99482.42;214500;1276;140050;-64
2022/05/29 09:11:58;;;;;;;2.70;2.40;;;;;;;19.36;43.10;99480.24;214207;1276;139336;-64
2022/05/29 09:17:12;;;;;;;3.80;2.30;;;;;;;19.19;43.92;99484.17;214321;1277;140729;-65
2022/05/29 09:22:29;;;;;;;4.00;1.90;;;;;;;19.21;44.22;99482.19;214228;1276;139501;-66
2022/05/29 09:27:37;;;;;;;2.80;1.60;;;;;;;19.07;44.05;99479.07;214505;1277;139427;-64
2022/05/29 09:33:01;;;;;;;5.70;2.00;;;;;;;18.97;44.20;99480.00;213346;1276;140082;-66
2022/05/29 09:38:20;;;;;;;2.00;1.50;;;;;;;18.79;43.90;99480.25;215376;1277;140013;-65
2022/05/29 09:43:27;;;;;;;2.80;1.60;;;;;;;18.49;44.07;99483.84;215764;1277;140259;-65
2022/05/29 09:54:01;;;;;;;3.20;1.30;;;;;;;18.16;45.16;99488.33;215695;1276;140569;-64
2022/05/29 09:59:15;;;;;;;2.90;1.50;;;;;;;18.15;45.30;99493.42;215765;1277;140886;-64
2022/05/29 10:04:29;;;;;;;1.70;1.50;;;;;;;18.15;44.78;99487.11;214525;1276;139396;-63
2022/05/29 10:09:59;;;;;;;3.40;1.50;;;;;;;18.32;45.35;99482.98;213952;1276;140511;-65
2022/05/29 10:15:06;;;;;;;4.70;2.40;;;;;;;18.50;45.44;99475.60;214786;1276;140353;-63
2022/05/29 10:20:35;;;;;;;2.90;1.70;;;;;;;18.49;45.67;99475.61;214025;1277;140046;-63
2022/05/29 10:25:55;;;;;;;5.00;1.60;;;;;;;18.84;45.48;99471.80;214644;1276;139983;-66
2022/05/29 11:51:54;;;;;;;0.70;0.70;;;;;;;19.62;42.63;99434.73;214565;1276;139704;-63
2022/05/29 11:57:09;;;;;;;1.50;1.10;;;;;;;19.84;42.18;99437.89;213064;1274;139533;-63
2022/05/29 12:02:27;;;;;;;1.60;0.80;;;;;;;20.16;41.90;99443.09;214993;1276;140470;-63
2022/05/29 12:07:40;;;;;;;4.00;0.90;;;;;;;20.31;41.46;99443.88;213548;1276;142181;-63
2022/05/29 12:12:56;;;;;;;3.00;0.90;;;;;;;20.23;40.63;99444.23;215620;1276;140154;-64
2022/05/29 12:18:06;;;;;;;2.10;1.40;;;;;;;20.15;40.92;99446.13;215618;1276;140088;-64
2022/05/29 12:23:25;;;;;;;2.60;1.20;;;;;;;19.89;40.77;99438.23;215750;1276;140814;-64
2022/05/29 12:28:53;;;;;;;2.60;1.40;;;;;;;19.51;41.07;99444.65;215267;1276;138934;-63
2022/05/29 12:33:58;;;;;;;3.00;1.50;;;;;;;19.44;41.78;99436.30;214386;1276;139693;-64
2022/05/29 12:39:18;;;;;;;0.90;0.80;;;;;;;19.72;42.00;99438.05;214590;1276;139775;-63
2022/05/29 12:44:48;;;;;;;5.10;1.30;;;;;;;19.78;41.72;99436.88;213649;1277;139974;-64
2022/05/29 12:50:10;;;;;;;3.60;1.20;;;;;;;19.79;41.64;99438.44;214381;1276;140530;-63
2022/05/29 12:55:47;;;;;;;1.90;1.20;;;;;;;19.71;41.12;99442.02;213858;1276;140052;-63
2022/05/29 13:01:19;;;;;;;5.80;1.40;;;;;;;19.53;41.11;99442.52;213079;1277;139876;-63
2022/05/29 13:06:55;;;;;;;2.30;1.20;;;;;;;19.16;41.45;99447.77;213635;1277;139345;-65
2022/05/29 13:12:12;;;;;;;1.80;1.20;;;;;;;18.87;41.68;99440.21;214382;1276;140712;-65
2022/05/29 13:17:24;;;;;;;2.80;1.20;;;;;;;19.01;42.31;99432.93;213816;1276;141671;-65
2022/05/29 13:22:53;;;;;;;1.90;1.10;;;;;;;19.20;42.20;99430.33;213163;1277;139649;-64
2022/05/29 13:27:59;;;;;;;1.40;1.00;;;;;;;19.20;42.06;99436.49;213668;1277;139348;-64
2022/05/29 13:33:25;;;;;;;5.10;1.60;;;;;;;19.34;42.09;99438.48;213108;1277;140732;-64
2022/05/29 13:38:45;;;;;;;1.20;1.00;;;;;;;19.20;41.66;99440.80;213118;1275;140271;-64
2022/05/29 13:43:49;;;;;;;2.00;1.30;;;;;;;19.15;41.96;99443.44;214149;1276;140275;-65
2022/05/29 13:49:21;;;;;;;1.50;1.30;;;;;;;19.43;41.94;99448.75;213939;1277;139524;-64
2022/05/29 13:54:30;;;;;;;1.70;1.10;;;;;;;19.66;41.57;99440.80;214941;1276;139790;-65
2022/05/29 14:05:23;;;;;;;1.70;1.10;;;;;;;19.67;41.75;99420.88;215144;1276;139551;-63
2022/05/29 14:10:29;;;;;;;2.40;1.20;;;;;;;19.58;41.25;99422.36;215651;1276;139513;-63
2022/05/29 14:15:48;;;;;;;3.20;1.50;;;;;;;19.31;41.22;99424.38;215743;1276;139764;-63
2022/05/29 14:21:07;;;;;;;3.40;1.20;;;;;;;19.22;41.97;99419.27;215720;1276;139381;-63
2022/05/29 14:26:22;;;;;;;4.20;1.30;;;;;;;19.18;41.86;99401.95;214605;1276;140424;-64
2022/05/29 15:38:59;;;;;;;3.20;1.30;;;;;;;18.19;43.19;99391.17;213333;1276;140607;-63
2022/05/29 15:44:23;;;;;;;1.50;1.40;;;;;;;18.35;42.99;99395.79;213880;1276;139349;-64
2022/05/29 15:49:39;;;;;;;3.50;1.10;;;;;;;18.38;42.91;99398.06;214252;1276;139888;-65
2022/05/29 15:55:09;;;;;;;2.50;1.30;;;;;;;18.12;42.72;99392.03;214217;1275;139892;-64
2022/05/29 16:00:17;;;;;;;1.80;1.40;;;;;;;17.90;43.17;99383.41;213340;1277;140194;-64
2022/05/29 16:05:33;;;;;;;2.40;1.20;;;;;;;17.76;43.53;99382.98;213882;1277;139892;-62
2022/05/29 16:10:39;;;;;;;3.10;1.80;;;;;;;17.72;43.92;99382.31;214025;1277;140834;-63
2022/05/29 16:15:54;;;;;;;7.70;1.50;;;;;;;17.63;44.20;99381.71;213725;1276;140033;-62
2022/05/29 16:21:28;;;;;;;1.70;1.50;;;;;;;17.31;44.50;99377.88;213439;1277;140402;-64
2022/05/29 16:26:39;;;;;;;1.60;1.40;;;;;;;16.99;44.85;99377.77;212920;1277;140901;-65
2022/05/29 16:31:52;;;;;;;1.90;1.00;;;;;;;16.82;44.99;99370.39;214692;1277;235908;-65
2022/05/29 16:48:16;;;;;;;4.70;1.70;;;;;;;16.15;45.93;99366.20;215495;1276;141329;-62
2022/05/29 16:53:22;;;;;;;1.50;1.10;;;;;;;16.11;46.61;99362.69;215652;1276;139821;-62
2022/05/29 16:58:35;;;;;;;5.30;2.20;;;;;;;16.14;47.69;99363.20;214954;1276;1026314;-63
2022/05/29 17:04:19;;;;;;;11.00;3.40;;;;;;;16.26;48.83;99356.54;215587;1276;141386;-63
2022/05/29 17:10:15;;;;;;;1.40;1.30;;;;;;;16.32;49.02;99348.27;215657;1276;140080;-63
2022/05/29 17:15:24;;;;;;;5.80;1.90;;;;;;;16.34;49.19;99350.23;214840;1276;141354;-62
2022/05/29 17:20:38;;;;;;;3.00;1.80;;;;;;;16.17;50.37;99353.16;215797;1276;140142;-65
2022/05/29 17:25:57;;;;;;;1.80;1.70;;;;;;;16.15;51.83;99352.44;214934;1276;141570;-64
2022/05/29 17:31:20;;;;;;;2.40;1.90;;;;;;;16.14;52.32;99353.41;214812;1276;139928;-64
2022/05/29 17:36:55;;;;;;;3.20;2.10;;;;;;;16.08;52.47;99352.00;214449;1276;140239;-64
2022/05/29 17:42:00;;;;;;;1.40;1.30;;;;;;;16.00;53.21;99356.35;213581;1277;140322;-64
2022/05/29 17:47:11;;;;;;;1.40;1.30;;;;;;;15.92;53.68;99362.79;214104;1276;140249;-64
2022/05/29 17:52:21;;;;;;;5.40;1.60;;;;;;;15.83;53.84;99365.83;213376;1277;139159;-65
2022/05/29 17:57:30;;;;;;;5.20;1.90;;;;;;;15.71;54.23;99366.64;214229;1277;140480;-63
2022/05/29 18:02:34;;;;;;;3.00;1.80;;;;;;;15.52;54.75;99380.14;214315;1277;138878;-65
2022/05/29 18:07:38;;;;;;;3.90;1.70;;;;;;;15.21;55.71;99377.36;213499;1276;139454;-64
2022/05/29 18:12:42;;;;;;;4.10;1.30;;;;;;;15.08;56.49;99377.98;213102;1276;139860;-65
2022/05/29 18:17:47;;;;;;;4.20;1.60;;;;;;;15.01;57.17;99378.44;213138;1275;139780;-63
2022/05/29 18:22:52;;;;;;;7.80;1.60;;;;;;;14.86;57.08;99377.34;215124;1277;141146;-65
2022/05/29 18:27:55;;;;;;;4.30;2.00;;;;;;;14.73;57.76;99372.73;213420;1276;141039;-65
2022/05/29 18:33:03;;;;;;;8.90;1.90;;;;;;;14.65;58.11;99373.61;214511;1276;139576;-63
2022/05/29 18:38:07;;;;;;;3.20;2.10;;;;;;;14.48;58.25;99374.90;214393;1276;140249;-64
2022/05/29 18:43:11;;;;;;;5.20;1.60;;;;;;;14.28;58.29;99386.90;215273;1276;142356;-65
2022/05/29 18:48:15;;;;;;;1.90;1.50;;;;;;;14.10;58.81;99389.66;214777;1276;139527;-64
2022/05/29 18:53:18;;;;;;;1.80;1.70;;;;;;;13.96;59.07;99385.58;215623;1276;140212;-64
2022/05/29 18:58:27;;;;;;;4.40;3.00;;;;;;;13.90;59.23;99387.05;215510;1276;141628;-65
2022/05/29 19:03:32;;;;;;;4.60;4.00;;;;;;;13.78;59.60;99388.85;215856;1277;139603;-65
2022/05/29 19:08:40;;;;;;;3.10;2.80;;;;;;;13.66;59.85;99383.55;215563;1276;141110;-64
2022/05/29 19:13:46;;;;;;;6.00;2.70;;;;;;;13.43;59.70;99392.09;212696;1277;141533;-64
2022/05/29 19:18:51;;;;;;;2.40;1.90;;;;;;;13.09;60.27;99390.58;215071;1277;140667;-66
2022/05/29 19:23:56;;;;;;;2.70;2.50;;;;;;;12.78;60.43;99393.16;215128;1276;140096;-65
2022/05/29 19:29:04;;;;;;;5.90;3.40;;;;;;;12.56;60.69;99388.92;215564;1277;140199;-65
2022/05/29 19:34:09;;;;;;;2.60;2.20;;;;;;;12.35;61.25;99390.52;214841;1276;140275;-64
2022/05/29 19:39:15;;;;;;;2.60;2.20;;;;;;;12.22;61.65;99385.82;213976;1277;141622;-64
2022/05/29 19:44:20;;;;;;;14.40;3.50;;;;;;;12.16;62.19;99385.88;213868;1276;141977;-64
2022/05/29 19:49:24;;;;;;;3.40;2.60;;;;;;;12.01;62.34;99389.99;214391;1276;142521;-63
2022/05/29 19:54:30;;;;;;;6.30;2.30;;;;;;;11.82;63.07;99386.44;214164;1277;141692;-63
2022/05/29 19:59:36;;;;;;;2.70;2.50;;;;;;;11.76;63.51;99377.88;213552;1277;142183;-62
2022/05/29 20:04:41;;;;;;;3.70;2.60;;;;;;;11.75;63.72;99379.58;213488;1277;141287;-63
2022/05/29 20:09:46;;;;;;;6.80;3.50;;;;;;;11.59;64.08;99375.64;213239;1277;140430;-64
2022/05/29 20:14:58;;;;;;;4.00;3.60;;;;;;;11.48;64.53;99373.38;213948;1276;140763;-63
2022/05/29 20:20:03;;;;;;;5.60;4.00;;;;;;;11.37;64.64;99377.23;213644;1277;141365;-64
2022/05/29 20:25:10;;;;;;;6.90;5.50;;;;;;;11.36;64.87;99372.73;214050;1277;141969;-64
2022/05/29 20:30:14;;;;;;;9.20;6.20;;;;;;;11.35;65.14;99371.19;214555;1276;140120;-67
